Montrose Heights, Virginia
Current Conditions -  °F | °C
As of 10:54 AM on Monday 26 Jan 2015 (Local Time) from KRIC Reporting Station
Overcast Overcast  
Wind Chill: 43°   Ceiling: 5500
Heat Index: 47°   Visibility: 10mi
Dew Point: 41°   Wind: 9mph
Humidity: 80%   Direction: 40°NE
Pressure: 29.7"   Gusts: NA
Location:  37.4458°N, 77.3237°W
Report Text: KRIC 261554Z 04008KT 10SM SCT015 BKN055 OVC250 08/05 A2970 RMK AO2 RAB15E45 SLP064 P0000 T00830050
Loading
Personal Weather Stations






























Interactive Weather Map New forecast layout! Learn more

10-Day Weather Forecast

Advertisements
Track Severe Weather on mobile